createdAt,value
2022-12-28T00:03:49.112Z,3.02
2022-12-28T00:14:12.039Z,3.08
2022-12-28T00:17:34.209Z,3.08
2022-12-28T00:20:18.421Z,3.10
2022-12-28T00:23:05.539Z,3.12
2022-12-28T00:25:39.653Z,3.15
2022-12-28T00:28:15.050Z,3.16
2022-12-28T00:30:55.535Z,3.19
2022-12-28T00:33:42.104Z,3.17
2022-12-28T00:37:08.386Z,3.29
2022-12-28T00:40:11.180Z,3.29
2022-12-28T00:43:05.027Z,3.34
2022-12-28T00:46:37.950Z,3.39
2022-12-28T00:49:33.947Z,3.43
2022-12-28T00:52:17.994Z,3.44
2022-12-28T00:55:01.068Z,3.42
2022-12-28T00:57:47.135Z,3.37
2022-12-28T01:00:44.287Z,3.44
2022-12-28T01:03:26.590Z,3.46
2022-12-28T01:06:23.885Z,3.45
2022-12-28T01:09:14.870Z,3.42
2022-12-28T01:12:14.181Z,3.41
2022-12-28T01:14:55.928Z,3.42
2022-12-28T01:17:56.378Z,3.43
2022-12-28T01:21:05.587Z,3.44
2022-12-28T01:24:16.217Z,3.42
2022-12-28T01:28:13.141Z,3.44
2022-12-28T01:35:02.888Z,3.48
2022-12-28T01:38:32.981Z,3.53
2022-12-28T01:41:24.279Z,3.46
2022-12-28T01:43:54.272Z,3.50
2022-12-28T01:46:37.921Z,3.58
2022-12-28T01:49:18.815Z,3.54
2022-12-28T01:52:19.809Z,3.57
2022-12-28T01:54:53.427Z,3.55
2022-12-28T01:57:28.482Z,3.53
2022-12-28T02:00:09.076Z,3.53
2022-12-28T02:03:01.499Z,3.53
2022-12-28T02:05:35.335Z,3.52
2022-12-28T02:08:12.692Z,3.53
2022-12-28T02:10:45.668Z,3.56
2022-12-28T02:13:15.171Z,3.61
2022-12-28T02:15:42.559Z,3.59
2022-12-28T02:18:10.370Z,3.53
2022-12-28T02:20:46.203Z,3.57
2022-12-28T02:23:23.341Z,3.55
2022-12-28T02:25:58.285Z,3.55
2022-12-28T02:28:56.853Z,3.53
2022-12-28T02:31:38.287Z,3.48
2022-12-28T02:34:11.451Z,3.49
2022-12-28T02:36:43.435Z,3.48
2022-12-28T02:39:15.203Z,3.47
2022-12-28T02:41:43.032Z,3.46
2022-12-28T02:44:09.902Z,3.47
2022-12-28T02:46:55.504Z,3.41
2022-12-28T02:49:45.721Z,3.39
2022-12-28T02:52:37.298Z,3.36
2022-12-28T02:55:41.583Z,3.34
2022-12-28T02:58:34.840Z,3.30
2022-12-28T03:01:10.966Z,3.34
2022-12-28T03:04:16.939Z,3.30
2022-12-28T03:07:29.870Z,3.26
2022-12-28T03:10:25.538Z,3.26
2022-12-28T03:13:43.620Z,3.30
2022-12-28T03:16:53.300Z,3.27
2022-12-28T03:20:00.461Z,3.24
2022-12-28T03:22:56.465Z,3.21
2022-12-28T03:27:29.272Z,3.18
2022-12-28T03:29:31.119Z,3.20
2022-12-28T03:32:11.211Z,3.22
2022-12-28T03:35:02.962Z,3.24
2022-12-28T03:38:31.869Z,3.18
2022-12-28T03:41:26.049Z,3.19
2022-12-28T03:44:44.852Z,3.14
2022-12-28T03:48:21.416Z,3.20
2022-12-28T03:51:33.712Z,3.14
2022-12-28T03:54:24.186Z,3.12
2022-12-28T03:57:16.256Z,3.07
2022-12-28T04:00:17.007Z,3.05
2022-12-28T04:03:02.424Z,3.06
2022-12-28T04:06:53.252Z,3.03
2022-12-28T04:12:32.911Z,3.06
2022-12-28T04:15:42.209Z,3.08
2022-12-28T04:18:26.833Z,3.02
2022-12-28T04:21:11.362Z,3.08
2022-12-28T04:23:53.343Z,3.02
2022-12-28T04:26:24.872Z,3.03
2022-12-28T04:29:01.081Z,2.96
2022-12-28T04:31:33.728Z,3.02
2022-12-28T04:34:07.342Z,2.99
2022-12-28T04:36:39.705Z,2.93
2022-12-28T04:39:11.019Z,2.95
2022-12-28T04:41:39.077Z,2.96
2022-12-28T04:44:06.149Z,2.95
2022-12-28T04:46:33.189Z,2.95
2022-12-28T04:49:00.798Z,3.08
2022-12-28T04:51:28.868Z,3.07
2022-12-28T04:53:57.173Z,3.05
2022-12-28T04:56:25.987Z,2.90
2022-12-28T04:58:58.334Z,3.00
2022-12-28T05:01:25.370Z,2.95
2022-12-28T05:03:56.531Z,2.93
2022-12-28T05:06:41.923Z,2.90
2022-12-28T05:09:13.811Z,2.89
2022-12-28T05:11:45.166Z,2.92
2022-12-28T05:14:12.116Z,2.92
2022-12-28T05:16:38.884Z,2.88
2022-12-28T05:19:05.937Z,2.92
2022-12-28T05:21:32.929Z,2.88
2022-12-28T05:23:59.789Z,2.93
2022-12-28T05:26:29.165Z,2.91
2022-12-28T05:28:56.917Z,2.93
2022-12-28T05:31:24.445Z,2.94
2022-12-28T05:33:51.989Z,2.92
2022-12-28T05:36:23.476Z,2.95
2022-12-28T05:38:50.520Z,2.91
2022-12-28T05:41:27.875Z,2.92
2022-12-28T05:43:55.736Z,2.98
2022-12-28T05:46:25.878Z,2.95
2022-12-28T05:48:52.979Z,3.32
2022-12-28T05:51:21.459Z,3.54
2022-12-28T05:54:27.945Z,3.35
2022-12-28T05:56:54.785Z,3.16
2022-12-28T05:59:23.335Z,3.12
2022-12-28T06:01:50.335Z,3.14
2022-12-28T06:04:19.368Z,3.23
2022-12-28T06:06:47.114Z,3.18
2022-12-28T06:09:14.625Z,3.13
2022-12-28T06:11:41.652Z,3.11
2022-12-28T06:14:08.900Z,3.11
2022-12-28T06:16:38.227Z,3.04
2022-12-28T06:19:07.468Z,3.06
2022-12-28T06:21:38.869Z,3.08
2022-12-28T06:24:08.804Z,3.02
2022-12-28T06:26:37.244Z,3.04
2022-12-28T06:29:09.206Z,3.07
2022-12-28T06:31:41.839Z,3.11
2022-12-28T06:34:09.712Z,3.12
2022-12-28T06:36:41.798Z,3.13
2022-12-28T06:39:10.549Z,3.16
2022-12-28T06:41:38.272Z,3.16
2022-12-28T06:44:12.418Z,3.20
2022-12-28T06:46:39.618Z,3.18
2022-12-28T06:49:06.604Z,3.17
2022-12-28T06:51:42.335Z,3.19
2022-12-28T06:54:10.049Z,3.27
2022-12-28T06:56:40.339Z,3.27
2022-12-28T06:59:07.299Z,3.38
2022-12-28T07:01:36.619Z,3.38
2022-12-28T07:04:05.126Z,3.29
2022-12-28T07:06:39.349Z,3.24
2022-12-28T07:09:08.372Z,3.32
2022-12-28T07:11:52.377Z,3.26
2022-12-28T07:14:21.428Z,3.23
2022-12-28T07:16:48.699Z,3.18
2022-12-28T07:19:15.823Z,3.20
2022-12-28T07:21:42.602Z,3.28
2022-12-28T07:24:09.607Z,3.20
2022-12-28T07:26:37.691Z,3.27
2022-12-28T07:29:06.070Z,3.22
2022-12-28T07:31:41.656Z,3.27
2022-12-28T07:34:15.058Z,3.24
2022-12-28T07:36:42.103Z,3.25
2022-12-28T07:39:09.190Z,3.29
2022-12-28T07:41:38.963Z,3.25
2022-12-28T07:44:09.183Z,3.28
2022-12-28T07:46:38.392Z,3.34
2022-12-28T07:49:05.792Z,3.32
2022-12-28T07:51:35.246Z,3.34
2022-12-28T07:54:02.565Z,3.32
2022-12-28T07:59:05.755Z,3.38
2022-12-28T08:01:34.697Z,3.38
2022-12-28T08:04:04.903Z,3.37
2022-12-28T08:06:34.828Z,3.41
2022-12-28T08:09:02.428Z,3.35
2022-12-28T08:11:33.975Z,3.37
2022-12-28T08:14:01.628Z,3.43
2022-12-28T08:16:30.876Z,3.40
2022-12-28T08:18:57.945Z,3.44
2022-12-28T08:21:30.253Z,3.46
2022-12-28T08:23:57.743Z,3.47
2022-12-28T08:26:36.100Z,3.48
2022-12-28T08:29:09.293Z,3.50
2022-12-28T08:31:38.015Z,3.55
2022-12-28T08:34:06.312Z,3.58
2022-12-28T08:36:33.793Z,3.65
2022-12-28T08:39:01.295Z,3.67
2022-12-28T08:41:29.766Z,3.61
2022-12-28T08:43:56.538Z,3.64
2022-12-28T08:46:28.293Z,3.60
2022-12-28T08:48:56.795Z,3.66
2022-12-28T08:51:28.035Z,3.67
2022-12-28T08:53:54.940Z,3.66
2022-12-28T08:56:24.936Z,3.69
2022-12-28T08:58:52.463Z,3.70
2022-12-28T09:01:30.482Z,3.75
2022-12-28T09:03:59.342Z,3.77
2022-12-28T09:06:28.446Z,3.81
2022-12-28T09:09:05.345Z,3.82
2022-12-28T09:11:38.589Z,3.86
2022-12-28T09:14:07.332Z,3.84
2022-12-28T09:16:34.471Z,3.87
2022-12-28T09:19:03.942Z,3.89
2022-12-28T09:21:34.103Z,3.87
2022-12-28T09:24:01.225Z,3.90
2022-12-28T09:26:31.882Z,3.90
2022-12-28T09:29:01.111Z,3.87
2022-12-28T09:31:30.060Z,3.91
2022-12-28T09:34:35.089Z,3.91
2022-12-28T09:36:51.063Z,3.96
2022-12-28T09:39:20.658Z,4.04
2022-12-28T09:41:56.290Z,4.01
2022-12-28T09:45:01.459Z,4.05
2022-12-28T09:47:37.306Z,4.11
2022-12-28T09:50:07.585Z,4.13
2022-12-28T09:52:38.030Z,4.15
2022-12-28T09:55:15.216Z,4.15
2022-12-28T09:57:51.288Z,4.18
2022-12-28T10:00:21.026Z,4.25
2022-12-28T10:03:03.965Z,4.26
2022-12-28T10:05:33.239Z,4.30
2022-12-28T10:08:00.266Z,4.36
2022-12-28T10:10:27.550Z,4.36
2022-12-28T10:12:54.715Z,4.40
2022-12-28T10:15:23.521Z,4.42
2022-12-28T10:17:50.657Z,4.41
2022-12-28T10:20:24.520Z,4.45
2022-12-28T10:22:55.461Z,4.48
2022-12-28T10:25:26.969Z,4.48
2022-12-28T10:27:58.605Z,4.53
2022-12-28T10:30:27.496Z,4.54
2022-12-28T10:33:03.832Z,4.56
2022-12-28T10:35:36.564Z,4.58
2022-12-28T10:38:06.252Z,4.63
2022-12-28T10:40:35.850Z,4.63
2022-12-28T10:43:08.514Z,4.61
2022-12-28T10:45:42.322Z,4.67
2022-12-28T10:48:21.511Z,4.70
2022-12-28T10:51:11.892Z,4.64
2022-12-28T10:53:47.221Z,4.67
2022-12-28T10:56:13.983Z,4.72
2022-12-28T10:58:45.671Z,4.74
2022-12-28T11:01:12.488Z,4.75
2022-12-28T11:03:59.421Z,4.75
2022-12-28T11:06:36.147Z,4.78
2022-12-28T11:09:03.089Z,4.82
2022-12-28T11:11:30.352Z,4.80
2022-12-28T11:14:01.112Z,4.86
2022-12-28T11:16:31.541Z,4.84
2022-12-28T11:19:01.173Z,4.87
2022-12-28T11:21:28.279Z,4.96
2022-12-28T11:23:55.425Z,4.98
2022-12-28T11:26:22.996Z,5.06
2022-12-28T11:28:53.763Z,5.09
2022-12-28T11:31:31.433Z,5.09
2022-12-28T11:34:04.711Z,5.11
2022-12-28T11:36:33.899Z,5.22
2022-12-28T11:39:26.653Z,5.29
2022-12-28T11:44:50.608Z,5.44
2022-12-28T11:47:17.379Z,5.46
2022-12-28T11:49:45.911Z,5.56
2022-12-28T11:52:20.835Z,5.62
2022-12-28T11:54:58.554Z,5.65
2022-12-28T11:57:40.053Z,5.61
2022-12-28T12:00:22.794Z,5.68
2022-12-28T12:02:52.957Z,5.67
2022-12-28T12:05:38.412Z,5.73
2022-12-28T12:08:17.299Z,5.75
2022-12-28T12:10:48.637Z,5.76
2022-12-28T12:13:27.717Z,5.81
2022-12-28T12:15:57.821Z,5.82
2022-12-28T12:18:26.396Z,5.91
2022-12-28T12:20:57.564Z,5.91
2022-12-28T12:23:36.447Z,5.98
2022-12-28T12:26:34.129Z,6.02
2022-12-28T12:29:05.244Z,6.04
2022-12-28T12:31:36.172Z,6.07
2022-12-28T12:34:12.088Z,6.06
2022-12-28T12:37:01.730Z,6.03
2022-12-28T12:39:47.288Z,6.05
2022-12-28T12:42:30.025Z,6.06
2022-12-28T12:45:01.255Z,6.08
2022-12-28T12:47:54.158Z,5.98
2022-12-28T12:50:57.774Z,6.03
2022-12-28T12:53:30.612Z,6.07
2022-12-28T12:56:19.158Z,6.03
2022-12-28T12:59:04.169Z,6.06
2022-12-28T13:01:46.775Z,6.08
2022-12-28T13:04:25.875Z,6.10
2022-12-28T13:06:57.423Z,6.12
2022-12-28T13:09:26.870Z,6.20
2022-12-28T13:11:54.217Z,6.22
2022-12-28T13:14:23.349Z,6.23
2022-12-28T13:16:52.201Z,6.25
2022-12-28T13:19:24.541Z,6.28
2022-12-28T13:21:51.757Z,6.29
2022-12-28T13:24:30.003Z,6.40
2022-12-28T13:26:58.729Z,6.42
2022-12-28T13:29:35.010Z,6.53
2022-12-28T13:32:01.860Z,6.62
2022-12-28T13:34:41.891Z,6.70
2022-12-28T13:37:19.472Z,6.70
2022-12-28T13:39:48.814Z,6.70
2022-12-28T13:43:00.248Z,6.67
2022-12-28T13:45:27.518Z,6.69
2022-12-28T13:47:57.637Z,6.68
2022-12-28T13:50:30.593Z,6.68
2022-12-28T13:53:03.881Z,6.66
2022-12-28T13:55:34.166Z,6.62
2022-12-28T13:58:04.397Z,6.59
2022-12-28T14:00:32.196Z,6.60
2022-12-28T14:02:59.247Z,6.63
2022-12-28T14:05:28.488Z,6.59
2022-12-28T14:07:56.617Z,6.53
2022-12-28T14:10:23.686Z,6.55
2022-12-28T14:12:50.916Z,6.60
2022-12-28T14:15:18.579Z,6.65
2022-12-28T14:17:52.457Z,6.67
2022-12-28T14:20:19.591Z,6.61
2022-12-28T14:23:21.516Z,6.61
2022-12-28T14:25:48.469Z,6.63
2022-12-28T14:28:43.340Z,6.60
2022-12-28T14:31:13.716Z,6.65
2022-12-28T14:33:56.856Z,6.64
2022-12-28T14:36:47.562Z,6.62
2022-12-28T14:39:36.178Z,6.69
2022-12-28T14:42:43.540Z,6.64
2022-12-28T14:46:04.955Z,6.60
2022-12-28T14:48:43.523Z,6.61
2022-12-28T14:51:17.498Z,6.60
2022-12-28T14:53:45.470Z,6.61
2022-12-28T14:56:17.807Z,6.57
2022-12-28T14:58:50.809Z,6.59
2022-12-28T15:01:18.999Z,6.61
2022-12-28T15:03:50.099Z,6.60
2022-12-28T15:06:16.953Z,6.58
2022-12-28T15:08:47.917Z,6.56
2022-12-28T15:11:28.121Z,6.57
2022-12-28T15:13:59.414Z,6.55
2022-12-28T15:16:26.385Z,6.53
2022-12-28T15:18:53.357Z,6.52
2022-12-28T15:24:34.302Z,6.48
2022-12-28T15:27:03.236Z,6.51
2022-12-28T15:30:04.305Z,6.44
2022-12-28T15:32:20.138Z,6.45
2022-12-28T15:39:20.361Z,6.42
2022-12-28T15:42:13.724Z,6.45
2022-12-28T15:44:48.737Z,6.40
2022-12-28T15:47:37.173Z,6.40
2022-12-28T15:50:05.350Z,6.41
2022-12-28T15:52:36.742Z,6.45
2022-12-28T15:55:14.837Z,6.41
2022-12-28T15:57:41.581Z,6.40
2022-12-28T16:00:08.850Z,6.43
2022-12-28T16:02:35.901Z,6.43
2022-12-28T16:05:02.725Z,6.37
2022-12-28T16:07:29.874Z,6.38
2022-12-28T16:09:56.567Z,6.31
2022-12-28T16:12:23.404Z,6.33
2022-12-28T16:14:50.541Z,6.33
2022-12-28T16:17:17.246Z,6.25
2022-12-28T16:19:46.788Z,6.28
2022-12-28T16:22:14.594Z,6.25
2022-12-28T16:24:41.421Z,6.25
2022-12-28T16:27:09.744Z,6.25
2022-12-28T16:29:39.514Z,6.31
2022-12-28T16:32:06.865Z,6.25
2022-12-28T16:34:33.716Z,6.26
2022-12-28T16:37:00.755Z,6.23
2022-12-28T16:39:39.685Z,6.24
2022-12-28T16:42:07.318Z,6.25
2022-12-28T16:44:34.574Z,6.27
2022-12-28T16:47:01.378Z,6.30
2022-12-28T16:49:29.811Z,6.27
2022-12-28T16:51:56.494Z,6.29
2022-12-28T16:54:25.353Z,6.30
2022-12-28T16:56:53.469Z,6.26
2022-12-28T16:59:24.602Z,6.30
2022-12-28T17:01:52.965Z,6.32
2022-12-28T17:04:19.915Z,6.33
2022-12-28T17:06:49.305Z,6.34
2022-12-28T17:09:16.343Z,6.33
2022-12-28T17:11:43.093Z,6.36
2022-12-28T17:14:17.517Z,6.38
2022-12-28T17:16:51.376Z,6.41
2022-12-28T17:19:18.191Z,6.41
2022-12-28T17:21:47.117Z,6.39
2022-12-28T17:24:14.178Z,6.39
2022-12-28T17:26:46.167Z,6.41
2022-12-28T17:29:28.105Z,6.42
2022-12-28T17:31:58.483Z,6.41
2022-12-28T17:34:58.870Z,6.41
2022-12-28T17:37:44.890Z,6.36
2022-12-28T17:40:25.374Z,6.36
2022-12-28T17:42:54.933Z,6.36
2022-12-28T17:45:24.436Z,6.32
2022-12-28T17:47:52.137Z,6.32
2022-12-28T17:50:23.771Z,6.31
2022-12-28T17:52:56.587Z,6.26
2022-12-28T17:55:58.400Z,6.25
2022-12-28T17:58:51.473Z,6.14
2022-12-28T18:01:43.349Z,6.14
2022-12-28T18:04:21.280Z,6.12
2022-12-28T18:06:48.205Z,6.14
2022-12-28T18:09:15.263Z,6.15
2022-12-28T18:11:49.297Z,6.12
2022-12-28T18:14:16.520Z,6.15
2022-12-28T18:16:53.380Z,6.15
2022-12-28T18:19:30.033Z,6.15
2022-12-28T18:25:12.794Z,6.21
2022-12-28T18:28:00.062Z,6.21
2022-12-28T18:30:40.178Z,6.22
2022-12-28T18:33:07.127Z,6.25
2022-12-28T18:35:34.082Z,6.24
2022-12-28T18:38:17.580Z,6.25
2022-12-28T18:40:52.955Z,6.21
2022-12-28T18:44:10.583Z,6.22
2022-12-28T18:46:37.517Z,6.18
2022-12-28T18:49:07.672Z,6.17
2022-12-28T18:51:41.285Z,6.19
2022-12-28T18:54:09.321Z,6.22
2022-12-28T18:59:34.056Z,6.23
2022-12-28T19:02:06.777Z,6.29
2022-12-28T19:04:43.723Z,6.23
2022-12-28T19:07:10.620Z,6.29
2022-12-28T19:09:37.374Z,6.27
2022-12-28T19:12:04.399Z,6.27
2022-12-28T19:14:31.169Z,6.25
2022-12-28T19:16:58.211Z,6.25
2022-12-28T19:19:30.430Z,6.22
2022-12-28T19:22:25.684Z,6.24
2022-12-28T19:25:36.436Z,6.23
2022-12-28T19:28:16.656Z,6.19
2022-12-28T19:30:43.799Z,6.19
2022-12-28T19:33:10.613Z,6.21
2022-12-28T19:36:15.021Z,6.20
2022-12-28T19:38:42.060Z,6.15
2022-12-28T19:41:17.666Z,6.23
2022-12-28T19:43:44.987Z,6.22
2022-12-28T19:46:20.711Z,6.15
2022-12-28T19:48:47.675Z,6.19
2022-12-28T19:51:14.857Z,6.15
2022-12-28T19:53:45.697Z,6.12
2022-12-28T19:56:15.120Z,6.11
2022-12-28T19:58:51.015Z,6.13
2022-12-28T20:01:29.073Z,6.14
2022-12-28T20:03:58.835Z,6.09
2022-12-28T20:06:28.822Z,6.09
2022-12-28T20:08:58.175Z,6.10
2022-12-28T20:11:25.320Z,6.05
2022-12-28T20:14:03.607Z,6.04
2022-12-28T20:16:32.396Z,6.10
2022-12-28T20:19:06.872Z,6.09
2022-12-28T20:21:35.119Z,6.08
2022-12-28T20:24:02.622Z,6.07
2022-12-28T20:26:34.697Z,6.07
2022-12-28T20:29:06.338Z,6.05
2022-12-28T20:31:36.104Z,6.07
2022-12-28T20:34:05.892Z,6.02
2022-12-28T20:36:36.051Z,6.05
2022-12-28T20:39:03.370Z,6.01
2022-12-28T20:41:50.729Z,6.01
2022-12-28T20:44:21.590Z,6.00
2022-12-28T20:46:48.609Z,5.97
2022-12-28T20:49:15.368Z,6.01
2022-12-28T20:51:42.803Z,5.99
2022-12-28T20:54:11.035Z,6.00
2022-12-28T20:56:38.834Z,5.94
2022-12-28T20:59:06.078Z,5.96
2022-12-28T21:01:34.423Z,5.95
2022-12-28T21:04:01.686Z,5.94
2022-12-28T21:06:28.770Z,5.92
2022-12-28T21:08:55.775Z,5.96
2022-12-28T21:11:23.002Z,5.95
2022-12-28T21:13:50.024Z,5.92
2022-12-28T21:16:20.516Z,5.91
2022-12-28T21:18:49.800Z,5.86
2022-12-28T21:21:21.999Z,5.84
2022-12-28T21:23:49.010Z,5.82
2022-12-28T21:26:19.604Z,5.88
2022-12-28T21:28:49.713Z,5.85
2022-12-28T21:31:16.855Z,5.82
2022-12-28T21:33:46.755Z,5.83
2022-12-28T21:36:16.053Z,5.82
2022-12-28T21:38:47.181Z,5.82
2022-12-28T21:41:16.005Z,5.83
2022-12-28T21:43:42.928Z,5.81
2022-12-28T21:46:14.547Z,5.87
2022-12-28T21:48:41.781Z,5.86
2022-12-28T21:51:30.807Z,5.88
2022-12-28T21:54:03.527Z,5.90
2022-12-28T21:56:31.531Z,5.90
2022-12-28T21:58:58.808Z,5.92
2022-12-28T22:01:44.925Z,5.88
2022-12-28T22:04:33.021Z,5.89
2022-12-28T22:07:00.732Z,5.89
2022-12-28T22:09:46.234Z,5.93
2022-12-28T22:12:32.678Z,5.88
2022-12-28T22:15:20.524Z,5.89
2022-12-28T22:17:47.550Z,5.90
2022-12-28T22:20:15.768Z,5.87
2022-12-28T22:22:43.283Z,5.86
2022-12-28T22:25:11.437Z,5.93
2022-12-28T22:27:38.661Z,5.97
2022-12-28T22:30:06.075Z,5.95
2022-12-28T22:32:33.099Z,5.99
2022-12-28T22:35:02.267Z,5.95
2022-12-28T22:37:29.236Z,5.99
2022-12-28T22:39:55.922Z,5.99
2022-12-28T22:42:22.622Z,6.03
2022-12-28T22:44:49.401Z,6.00
2022-12-28T22:47:16.548Z,6.06
2022-12-28T22:49:43.326Z,6.02
2022-12-28T22:52:10.305Z,6.11
2022-12-28T22:54:39.899Z,6.05
2022-12-28T22:57:09.641Z,6.09
2022-12-28T22:59:36.454Z,6.13
2022-12-28T23:02:03.465Z,6.15
2022-12-28T23:04:30.505Z,6.17
2022-12-28T23:07:03.143Z,6.18
2022-12-28T23:09:33.544Z,6.18
2022-12-28T23:12:00.422Z,6.23
2022-12-28T23:14:45.856Z,6.22
2022-12-28T23:17:15.111Z,6.24
2022-12-28T23:20:01.634Z,6.24
2022-12-28T23:22:49.156Z,6.21
2022-12-28T23:25:39.970Z,6.24
2022-12-28T23:28:10.955Z,6.25
2022-12-28T23:30:42.284Z,6.26
2022-12-28T23:33:09.201Z,6.23
2022-12-28T23:35:36.064Z,6.22
2022-12-28T23:38:02.891Z,6.24
2022-12-28T23:40:29.756Z,6.28
2022-12-28T23:42:56.625Z,6.32
2022-12-28T23:45:23.664Z,6.29
2022-12-28T23:47:52.493Z,6.31
2022-12-28T23:50:22.851Z,6.33
2022-12-28T23:52:49.716Z,6.28
2022-12-28T23:55:16.772Z,6.36
2022-12-28T23:57:45.844Z,6.34
